sensor_id;sensor_type;location;lat;lon;timestamp;temperature;humidity
5689;DHT22;2869;50.432;8.680;2023-03-01T00:01:38;-0.60;99.90
5689;DHT22;2869;50.432;8.680;2023-03-01T00:04:05;-0.60;99.90
5689;DHT22;2869;50.432;8.680;2023-03-01T00:06:31;-0.50;99.90
5689;DHT22;2869;50.432;8.680;2023-03-01T00:08:58;-0.60;99.90
5689;DHT22;2869;50.432;8.680;2023-03-01T00:11:26;-0.60;99.90
5689;DHT22;2869;50.432;8.680;2023-03-01T00:13:56;-0.70;99.90
5689;DHT22;2869;50.432;8.680;2023-03-01T00:16:26;-0.80;99.90
5689;DHT22;2869;50.432;8.680;2023-03-01T00:18:53;-0.80;99.90
5689;DHT22;2869;50.432;8.680;2023-03-01T00:21:21;-0.90;99.90
5689;DHT22;2869;50.432;8.680;2023-03-01T00:23:48;-0.90;99.90
5689;DHT22;2869;50.432;8.680;2023-03-01T00:26:16;-1.00;99.90
5689;DHT22;2869;50.432;8.680;2023-03-01T00:28:43;-1.00;99.90
5689;DHT22;2869;50.432;8.680;2023-03-01T00:31:15;-1.00;99.90
5689;DHT22;2869;50.432;8.680;2023-03-01T00:33:43;-1.10;99.90
5689;DHT22;2869;50.432;8.680;2023-03-01T00:36:11;-1.10;99.90
5689;DHT22;2869;50.432;8.680;2023-03-01T00:38:39;-1.10;99.90
5689;DHT22;2869;50.432;8.680;2023-03-01T00:41:07;-1.00;99.90
5689;DHT22;2869;50.432;8.680;2023-03-01T00:43:34;-1.10;99.90
5689;DHT22;2869;50.432;8.680;2023-03-01T00:46:02;-1.20;99.90
5689;DHT22;2869;50.432;8.680;2023-03-01T00:48:30;-1.20;99.90
5689;DHT22;2869;50.432;8.680;2023-03-01T00:50:57;-1.20;99.90
5689;DHT22;2869;50.432;8.680;2023-03-01T00:53:30;-1.20;99.90
5689;DHT22;2869;50.432;8.680;2023-03-01T00:55:57;-1.20;99.90
5689;DHT22;2869;50.432;8.680;2023-03-01T00:58:24;-1.20;99.90
5689;DHT22;2869;50.432;8.680;2023-03-01T01:00:51;-1.10;99.90
5689;DHT22;2869;50.432;8.680;2023-03-01T01:03:17;-1.10;99.90
5689;DHT22;2869;50.432;8.680;2023-03-01T01:05:45;-1.10;99.90
5689;DHT22;2869;50.432;8.680;2023-03-01T01:08:12;-1.10;99.90
5689;DHT22;2869;50.432;8.680;2023-03-01T01:10:39;-1.10;99.90
5689;DHT22;2869;50.432;8.680;2023-03-01T01:13:05;-1.10;99.90
5689;DHT22;2869;50.432;8.680;2023-03-01T01:15:33;-1.10;99.90
5689;DHT22;2869;50.432;8.680;2023-03-01T01:18:00;-1.00;99.90
5689;DHT22;2869;50.432;8.680;2023-03-01T01:20:27;-1.10;99.90
5689;DHT22;2869;50.432;8.680;2023-03-01T01:22:55;-1.10;99.90
5689;DHT22;2869;50.432;8.680;2023-03-01T01:25:22;-1.10;99.90
5689;DHT22;2869;50.432;8.680;2023-03-01T01:27:50;-1.20;99.90
5689;DHT22;2869;50.432;8.680;2023-03-01T01:30:17;-1.20;99.90
5689;DHT22;2869;50.432;8.680;2023-03-01T01:32:43;-1.30;99.90
5689;DHT22;2869;50.432;8.680;2023-03-01T01:35:10;-1.30;99.90
5689;DHT22;2869;50.432;8.680;2023-03-01T01:37:37;-1.30;99.90
5689;DHT22;2869;50.432;8.680;2023-03-01T01:40:06;-1.30;99.90
5689;DHT22;2869;50.432;8.680;2023-03-01T01:42:32;-1.40;99.90
5689;DHT22;2869;50.432;8.680;2023-03-01T01:45:27;-1.40;99.90
5689;DHT22;2869;50.432;8.680;2023-03-01T01:47:57;-1.50;99.90
5689;DHT22;2869;50.432;8.680;2023-03-01T01:50:25;-1.50;99.90
5689;DHT22;2869;50.432;8.680;2023-03-01T01:52:53;-1.50;99.90
5689;DHT22;2869;50.432;8.680;2023-03-01T01:55:24;-1.50;99.90
5689;DHT22;2869;50.432;8.680;2023-03-01T01:57:54;-1.50;99.90
5689;DHT22;2869;50.432;8.680;2023-03-01T02:00:25;-1.50;99.90
5689;DHT22;2869;50.432;8.680;2023-03-01T02:02:57;-1.50;99.90
5689;DHT22;2869;50.432;8.680;2023-03-01T02:05:28;-1.60;99.90
5689;DHT22;2869;50.432;8.680;2023-03-01T02:07:58;-1.60;99.90
5689;DHT22;2869;50.432;8.680;2023-03-01T02:10:28;-1.60;99.90
5689;DHT22;2869;50.432;8.680;2023-03-01T02:12:55;-1.60;99.90
5689;DHT22;2869;50.432;8.680;2023-03-01T02:15:22;-1.60;99.90
5689;DHT22;2869;50.432;8.680;2023-03-01T02:17:49;-1.70;99.90
5689;DHT22;2869;50.432;8.680;2023-03-01T02:20:22;-1.70;99.90
5689;DHT22;2869;50.432;8.680;2023-03-01T02:22:51;-1.70;99.90
5689;DHT22;2869;50.432;8.680;2023-03-01T02:25:37;-1.60;99.90
5689;DHT22;2869;50.432;8.680;2023-03-01T02:30:39;-1.70;99.90
5689;DHT22;2869;50.432;8.680;2023-03-01T02:33:26;-1.60;99.90
5689;DHT22;2869;50.432;8.680;2023-03-01T02:35:54;-1.60;99.90
5689;DHT22;2869;50.432;8.680;2023-03-01T02:38:22;-1.70;99.90
5689;DHT22;2869;50.432;8.680;2023-03-01T02:40:50;-1.60;99.90
5689;DHT22;2869;50.432;8.680;2023-03-01T02:43:19;-1.70;99.90
5689;DHT22;2869;50.432;8.680;2023-03-01T02:45:51;-1.70;99.90
5689;DHT22;2869;50.432;8.680;2023-03-01T02:48:19;-1.70;99.90
5689;DHT22;2869;50.432;8.680;2023-03-01T02:50:57;-1.70;99.90
5689;DHT22;2869;50.432;8.680;2023-03-01T02:53:38;-1.80;99.90
5689;DHT22;2869;50.432;8.680;2023-03-01T02:56:05;-1.80;99.90
5689;DHT22;2869;50.432;8.680;2023-03-01T02:58:38;-1.80;99.90
5689;DHT22;2869;50.432;8.680;2023-03-01T03:01:12;-1.80;99.90
5689;DHT22;2869;50.432;8.680;2023-03-01T03:03:40;-1.80;99.90
5689;DHT22;2869;50.432;8.680;2023-03-01T03:06:07;-1.80;99.90
5689;DHT22;2869;50.432;8.680;2023-03-01T03:08:34;-1.80;99.90
5689;DHT22;2869;50.432;8.680;2023-03-01T03:11:02;-1.80;99.90
5689;DHT22;2869;50.432;8.680;2023-03-01T03:13:28;-1.80;99.90
5689;DHT22;2869;50.432;8.680;2023-03-01T03:15:56;-1.90;99.90
5689;DHT22;2869;50.432;8.680;2023-03-01T03:18:24;-1.90;99.90
5689;DHT22;2869;50.432;8.680;2023-03-01T03:20:52;-1.90;99.90
5689;DHT22;2869;50.432;8.680;2023-03-01T03:23:20;-1.70;99.90
5689;DHT22;2869;50.432;8.680;2023-03-01T03:25:48;-1.90;99.90
5689;DHT22;2869;50.432;8.680;2023-03-01T03:28:15;-1.80;99.90
5689;DHT22;2869;50.432;8.680;2023-03-01T03:30:42;-1.80;99.90
5689;DHT22;2869;50.432;8.680;2023-03-01T03:33:10;-1.80;99.90
5689;DHT22;2869;50.432;8.680;2023-03-01T03:35:41;-1.80;99.90
5689;DHT22;2869;50.432;8.680;2023-03-01T03:38:10;-1.80;99.90
5689;DHT22;2869;50.432;8.680;2023-03-01T03:40:43;-1.80;99.90
5689;DHT22;2869;50.432;8.680;2023-03-01T03:43:14;-2.00;99.90
5689;DHT22;2869;50.432;8.680;2023-03-01T03:45:41;-1.80;99.90
5689;DHT22;2869;50.432;8.680;2023-03-01T03:48:09;-2.00;99.90
5689;DHT22;2869;50.432;8.680;2023-03-01T03:50:35;-1.90;99.90
5689;DHT22;2869;50.432;8.680;2023-03-01T03:53:06;-2.00;99.90
5689;DHT22;2869;50.432;8.680;2023-03-01T03:55:33;-2.00;99.90
5689;DHT22;2869;50.432;8.680;2023-03-01T03:58:01;-2.00;99.90
5689;DHT22;2869;50.432;8.680;2023-03-01T04:00:32;-2.00;99.90
5689;DHT22;2869;50.432;8.680;2023-03-01T04:02:59;-2.10;99.90
5689;DHT22;2869;50.432;8.680;2023-03-01T04:05:27;-2.10;99.90
5689;DHT22;2869;50.432;8.680;2023-03-01T04:07:53;-2.10;99.90
5689;DHT22;2869;50.432;8.680;2023-03-01T04:10:28;-2.10;99.90
5689;DHT22;2869;50.432;8.680;2023-03-01T04:12:55;-2.20;99.90
5689;DHT22;2869;50.432;8.680;2023-03-01T04:15:23;-2.10;99.90
5689;DHT22;2869;50.432;8.680;2023-03-01T04:17:52;-2.10;99.90
5689;DHT22;2869;50.432;8.680;2023-03-01T04:20:20;-2.10;99.90
5689;DHT22;2869;50.432;8.680;2023-03-01T04:22:51;-2.10;99.90
5689;DHT22;2869;50.432;8.680;2023-03-01T04:25:18;-2.20;99.90
5689;DHT22;2869;50.432;8.680;2023-03-01T04:27:46;-2.20;99.90
5689;DHT22;2869;50.432;8.680;2023-03-01T04:30:13;-2.20;99.90
5689;DHT22;2869;50.432;8.680;2023-03-01T04:32:39;-2.20;99.90
5689;DHT22;2869;50.432;8.680;2023-03-01T04:35:07;-2.20;99.90
5689;DHT22;2869;50.432;8.680;2023-03-01T04:37:33;-2.20;99.90
5689;DHT22;2869;50.432;8.680;2023-03-01T04:40:02;-2.20;99.90
5689;DHT22;2869;50.432;8.680;2023-03-01T04:42:37;-2.10;99.90
5689;DHT22;2869;50.432;8.680;2023-03-01T04:45:06;-2.10;99.90
5689;DHT22;2869;50.432;8.680;2023-03-01T04:47:39;-2.10;99.90
5689;DHT22;2869;50.432;8.680;2023-03-01T04:50:06;-2.10;99.90
5689;DHT22;2869;50.432;8.680;2023-03-01T04:52:33;-2.10;99.90
5689;DHT22;2869;50.432;8.680;2023-03-01T04:54:59;-2.00;99.90
5689;DHT22;2869;50.432;8.680;2023-03-01T04:57:26;-1.90;99.90
5689;DHT22;2869;50.432;8.680;2023-03-01T04:59:53;-2.00;99.90
5689;DHT22;2869;50.432;8.680;2023-03-01T05:02:21;-2.00;99.90
5689;DHT22;2869;50.432;8.680;2023-03-01T05:04:47;-1.90;99.90
5689;DHT22;2869;50.432;8.680;2023-03-01T05:07:14;-2.00;99.90
5689;DHT22;2869;50.432;8.680;2023-03-01T05:09:45;-2.00;99.90
5689;DHT22;2869;50.432;8.680;2023-03-01T05:12:12;-2.00;99.90
5689;DHT22;2869;50.432;8.680;2023-03-01T05:14:38;-2.00;99.90
5689;DHT22;2869;50.432;8.680;2023-03-01T05:17:05;-1.90;99.90
5689;DHT22;2869;50.432;8.680;2023-03-01T05:19:34;-1.90;99.90
5689;DHT22;2869;50.432;8.680;2023-03-01T05:22:01;-1.90;99.90
5689;DHT22;2869;50.432;8.680;2023-03-01T05:24:32;-1.80;99.90
5689;DHT22;2869;50.432;8.680;2023-03-01T05:26:59;-1.90;99.90
5689;DHT22;2869;50.432;8.680;2023-03-01T05:29:28;-1.90;99.90
5689;DHT22;2869;50.432;8.680;2023-03-01T05:31:56;-1.80;99.90
5689;DHT22;2869;50.432;8.680;2023-03-01T05:34:24;-1.80;99.90
5689;DHT22;2869;50.432;8.680;2023-03-01T05:36:52;-1.80;99.90
5689;DHT22;2869;50.432;8.680;2023-03-01T05:39:20;-1.70;99.90
5689;DHT22;2869;50.432;8.680;2023-03-01T05:41:47;-1.80;99.90
5689;DHT22;2869;50.432;8.680;2023-03-01T05:44:14;-1.80;99.90
5689;DHT22;2869;50.432;8.680;2023-03-01T05:46:41;-1.80;99.90
5689;DHT22;2869;50.432;8.680;2023-03-01T05:49:07;-1.80;99.90
5689;DHT22;2869;50.432;8.680;2023-03-01T05:51:34;-1.80;99.90
5689;DHT22;2869;50.432;8.680;2023-03-01T05:54:02;-1.80;99.90
5689;DHT22;2869;50.432;8.680;2023-03-01T05:56:32;-1.80;99.90
5689;DHT22;2869;50.432;8.680;2023-03-01T05:59:00;-1.90;99.90
5689;DHT22;2869;50.432;8.680;2023-03-01T06:01:26;-1.90;99.90
5689;DHT22;2869;50.432;8.680;2023-03-01T06:03:53;-1.90;99.90
5689;DHT22;2869;50.432;8.680;2023-03-01T06:06:20;-1.90;99.90
5689;DHT22;2869;50.432;8.680;2023-03-01T06:08:46;-1.90;99.90
5689;DHT22;2869;50.432;8.680;2023-03-01T06:11:14;-1.90;99.90
5689;DHT22;2869;50.432;8.680;2023-03-01T06:13:41;-1.80;99.90
5689;DHT22;2869;50.432;8.680;2023-03-01T06:16:08;-1.90;99.90
5689;DHT22;2869;50.432;8.680;2023-03-01T06:18:35;-1.90;99.90
5689;DHT22;2869;50.432;8.680;2023-03-01T06:21:02;-1.90;99.90
5689;DHT22;2869;50.432;8.680;2023-03-01T06:23:29;-1.80;99.90
5689;DHT22;2869;50.432;8.680;2023-03-01T06:25:56;-1.80;99.90
5689;DHT22;2869;50.432;8.680;2023-03-01T06:28:25;-1.50;99.90
5689;DHT22;2869;50.432;8.680;2023-03-01T06:30:52;-0.20;99.90
5689;DHT22;2869;50.432;8.680;2023-03-01T06:33:19;0.70;99.90
5689;DHT22;2869;50.432;8.680;2023-03-01T06:35:47;1.40;99.90
5689;DHT22;2869;50.432;8.680;2023-03-01T06:38:13;1.80;99.90
5689;DHT22;2869;50.432;8.680;2023-03-01T06:40:42;2.20;99.90
5689;DHT22;2869;50.432;8.680;2023-03-01T06:43:09;2.60;99.90
5689;DHT22;2869;50.432;8.680;2023-03-01T06:45:37;2.90;99.90
5689;DHT22;2869;50.432;8.680;2023-03-01T06:48:04;2.90;99.90
5689;DHT22;2869;50.432;8.680;2023-03-01T06:50:31;2.60;99.90
5689;DHT22;2869;50.432;8.680;2023-03-01T06:52:58;2.40;99.90
5689;DHT22;2869;50.432;8.680;2023-03-01T06:55:25;2.20;99.90
5689;DHT22;2869;50.432;8.680;2023-03-01T06:57:54;1.90;99.90
5689;DHT22;2869;50.432;8.680;2023-03-01T07:00:22;1.60;99.90
5689;DHT22;2869;50.432;8.680;2023-03-01T07:02:51;1.70;99.90
5689;DHT22;2869;50.432;8.680;2023-03-01T07:05:18;1.90;99.90
5689;DHT22;2869;50.432;8.680;2023-03-01T07:07:44;2.30;99.90
5689;DHT22;2869;50.432;8.680;2023-03-01T07:10:12;2.70;99.90
5689;DHT22;2869;50.432;8.680;2023-03-01T07:12:38;3.10;99.90
5689;DHT22;2869;50.432;8.680;2023-03-01T07:15:09;3.40;99.90
5689;DHT22;2869;50.432;8.680;2023-03-01T07:17:35;3.90;99.90
5689;DHT22;2869;50.432;8.680;2023-03-01T07:20:04;4.20;99.90
5689;DHT22;2869;50.432;8.680;2023-03-01T07:22:31;4.30;99.90
5689;DHT22;2869;50.432;8.680;2023-03-01T07:24:58;4.40;99.90
5689;DHT22;2869;50.432;8.680;2023-03-01T07:27:24;4.50;99.90
5689;DHT22;2869;50.432;8.680;2023-03-01T07:29:51;4.50;99.90
5689;DHT22;2869;50.432;8.680;2023-03-01T07:32:17;5.00;99.90
5689;DHT22;2869;50.432;8.680;2023-03-01T07:34:44;5.30;99.90
5689;DHT22;2869;50.432;8.680;2023-03-01T07:37:12;5.30;99.90
5689;DHT22;2869;50.432;8.680;2023-03-01T07:39:38;5.20;99.90
5689;DHT22;2869;50.432;8.680;2023-03-01T07:42:05;5.20;99.90
5689;DHT22;2869;50.432;8.680;2023-03-01T07:44:32;5.00;99.90
5689;DHT22;2869;50.432;8.680;2023-03-01T07:46:58;5.30;99.90
5689;DHT22;2869;50.432;8.680;2023-03-01T07:49:25;5.40;99.90
5689;DHT22;2869;50.432;8.680;2023-03-01T07:51:52;5.00;99.90
5689;DHT22;2869;50.432;8.680;2023-03-01T07:54:20;5.30;99.90
5689;DHT22;2869;50.432;8.680;2023-03-01T07:56:47;5.60;99.90
5689;DHT22;2869;50.432;8.680;2023-03-01T07:59:13;5.70;99.90
5689;DHT22;2869;50.432;8.680;2023-03-01T08:01:40;6.70;99.90
5689;DHT22;2869;50.432;8.680;2023-03-01T08:04:07;6.90;99.90
5689;DHT22;2869;50.432;8.680;2023-03-01T08:06:35;6.20;99.90
5689;DHT22;2869;50.432;8.680;2023-03-01T08:09:02;5.60;99.90
5689;DHT22;2869;50.432;8.680;2023-03-01T08:11:30;5.20;99.90
5689;DHT22;2869;50.432;8.680;2023-03-01T08:13:57;4.90;99.90
5689;DHT22;2869;50.432;8.680;2023-03-01T08:16:23;4.90;99.90
5689;DHT22;2869;50.432;8.680;2023-03-01T08:18:50;4.70;99.90
5689;DHT22;2869;50.432;8.680;2023-03-01T08:21:17;4.60;99.90
5689;DHT22;2869;50.432;8.680;2023-03-01T08:23:44;4.10;99.90
5689;DHT22;2869;50.432;8.680;2023-03-01T08:26:12;3.80;99.90
5689;DHT22;2869;50.432;8.680;2023-03-01T08:28:41;3.80;99.90
5689;DHT22;2869;50.432;8.680;2023-03-01T08:31:16;3.90;99.90
5689;DHT22;2869;50.432;8.680;2023-03-01T08:33:43;4.00;99.90
5689;DHT22;2869;50.432;8.680;2023-03-01T08:36:09;4.20;99.90
5689;DHT22;2869;50.432;8.680;2023-03-01T08:38:36;4.30;99.90
5689;DHT22;2869;50.432;8.680;2023-03-01T08:41:03;4.40;99.90
5689;DHT22;2869;50.432;8.680;2023-03-01T08:43:31;4.50;99.90
5689;DHT22;2869;50.432;8.680;2023-03-01T08:45:59;4.50;99.90
5689;DHT22;2869;50.432;8.680;2023-03-01T08:48:27;4.70;99.90
5689;DHT22;2869;50.432;8.680;2023-03-01T08:50:54;4.80;99.90
5689;DHT22;2869;50.432;8.680;2023-03-01T08:53:21;5.00;99.90
5689;DHT22;2869;50.432;8.680;2023-03-01T08:55:48;5.20;99.90
5689;DHT22;2869;50.432;8.680;2023-03-01T08:58:14;5.30;99.90
5689;DHT22;2869;50.432;8.680;2023-03-01T09:00:41;5.50;99.90
5689;DHT22;2869;50.432;8.680;2023-03-01T09:03:09;5.80;99.90
5689;DHT22;2869;50.432;8.680;2023-03-01T09:05:35;5.80;99.90
5689;DHT22;2869;50.432;8.680;2023-03-01T09:08:02;6.00;99.90
5689;DHT22;2869;50.432;8.680;2023-03-01T09:10:29;6.20;99.90
5689;DHT22;2869;50.432;8.680;2023-03-01T09:12:55;6.30;99.90
5689;DHT22;2869;50.432;8.680;2023-03-01T09:15:22;6.30;99.90
5689;DHT22;2869;50.432;8.680;2023-03-01T09:17:49;6.50;99.90
5689;DHT22;2869;50.432;8.680;2023-03-01T09:20:17;6.50;99.90
5689;DHT22;2869;50.432;8.680;2023-03-01T09:22:44;6.40;99.90
5689;DHT22;2869;50.432;8.680;2023-03-01T09:25:10;6.30;99.90
5689;DHT22;2869;50.432;8.680;2023-03-01T09:27:37;6.20;99.90
5689;DHT22;2869;50.432;8.680;2023-03-01T09:30:04;6.20;99.90
5689;DHT22;2869;50.432;8.680;2023-03-01T09:32:31;6.30;99.90
5689;DHT22;2869;50.432;8.680;2023-03-01T09:34:58;6.30;99.90
5689;DHT22;2869;50.432;8.680;2023-03-01T09:37:31;6.50;99.90
5689;DHT22;2869;50.432;8.680;2023-03-01T09:39:58;6.50;99.90
5689;DHT22;2869;50.432;8.680;2023-03-01T09:42:25;6.70;99.90
5689;DHT22;2869;50.432;8.680;2023-03-01T09:44:58;6.80;99.90
5689;DHT22;2869;50.432;8.680;2023-03-01T09:47:29;6.60;99.90
5689;DHT22;2869;50.432;8.680;2023-03-01T09:50:03;6.30;99.90
5689;DHT22;2869;50.432;8.680;2023-03-01T09:52:38;6.10;99.90
5689;DHT22;2869;50.432;8.680;2023-03-01T09:55:10;6.30;99.90
5689;DHT22;2869;50.432;8.680;2023-03-01T09:57:43;6.60;99.90
5689;DHT22;2869;50.432;8.680;2023-03-01T10:00:20;7.10;99.90
5689;DHT22;2869;50.432;8.680;2023-03-01T10:02:54;7.50;99.90
5689;DHT22;2869;50.432;8.680;2023-03-01T10:05:34;7.80;99.90
5689;DHT22;2869;50.432;8.680;2023-03-01T10:08:26;8.30;99.90
5689;DHT22;2869;50.432;8.680;2023-03-01T10:10:55;8.60;99.90
5689;DHT22;2869;50.432;8.680;2023-03-01T10:13:25;8.40;99.90
5689;DHT22;2869;50.432;8.680;2023-03-01T10:15:55;7.90;99.90
5689;DHT22;2869;50.432;8.680;2023-03-01T10:18:26;8.10;99.90
5689;DHT22;2869;50.432;8.680;2023-03-01T10:20:56;8.10;99.90
5689;DHT22;2869;50.432;8.680;2023-03-01T10:23:25;8.30;99.90
5689;DHT22;2869;50.432;8.680;2023-03-01T10:26:11;8.20;99.90
5689;DHT22;2869;50.432;8.680;2023-03-01T10:28:47;8.10;99.90
5689;DHT22;2869;50.432;8.680;2023-03-01T10:31:19;8.00;99.90
5689;DHT22;2869;50.432;8.680;2023-03-01T10:33:48;8.20;99.90
5689;DHT22;2869;50.432;8.680;2023-03-01T10:36:20;8.30;99.90
5689;DHT22;2869;50.432;8.680;2023-03-01T10:38:50;8.40;99.90
5689;DHT22;2869;50.432;8.680;2023-03-01T10:41:18;8.40;99.90
5689;DHT22;2869;50.432;8.680;2023-03-01T10:43:46;8.70;99.90
5689;DHT22;2869;50.432;8.680;2023-03-01T10:46:23;8.70;99.90
5689;DHT22;2869;50.432;8.680;2023-03-01T10:49:06;9.00;99.90
5689;DHT22;2869;50.432;8.680;2023-03-01T10:51:33;9.10;99.90
5689;DHT22;2869;50.432;8.680;2023-03-01T10:54:02;9.20;99.90
5689;DHT22;2869;50.432;8.680;2023-03-01T10:56:46;9.20;99.90
5689;DHT22;2869;50.432;8.680;2023-03-01T10:59:22;9.40;99.90
5689;DHT22;2869;50.432;8.680;2023-03-01T11:02:03;9.50;99.90
5689;DHT22;2869;50.432;8.680;2023-03-01T11:04:30;9.70;99.90
5689;DHT22;2869;50.432;8.680;2023-03-01T11:07:01;9.70;99.90
5689;DHT22;2869;50.432;8.680;2023-03-01T11:09:33;9.90;99.90
5689;DHT22;2869;50.432;8.680;2023-03-01T11:12:04;9.60;99.90
5689;DHT22;2869;50.432;8.680;2023-03-01T11:14:35;9.50;99.90
5689;DHT22;2869;50.432;8.680;2023-03-01T11:17:04;9.60;99.90
5689;DHT22;2869;50.432;8.680;2023-03-01T11:19:32;9.50;99.90
5689;DHT22;2869;50.432;8.680;2023-03-01T11:22:03;9.80;99.90
5689;DHT22;2869;50.432;8.680;2023-03-01T11:24:41;9.90;99.90
5689;DHT22;2869;50.432;8.680;2023-03-01T11:27:18;10.00;99.90
5689;DHT22;2869;50.432;8.680;2023-03-01T11:29:50;10.20;99.90
5689;DHT22;2869;50.432;8.680;2023-03-01T11:32:21;10.00;99.90
5689;DHT22;2869;50.432;8.680;2023-03-01T11:34:53;10.20;99.90
5689;DHT22;2869;50.432;8.680;2023-03-01T11:37:30;10.50;99.90
5689;DHT22;2869;50.432;8.680;2023-03-01T11:40:07;10.60;99.90
5689;DHT22;2869;50.432;8.680;2023-03-01T11:42:54;10.20;99.90
5689;DHT22;2869;50.432;8.680;2023-03-01T11:45:24;10.40;99.90
5689;DHT22;2869;50.432;8.680;2023-03-01T11:48:02;10.40;99.90
5689;DHT22;2869;50.432;8.680;2023-03-01T11:50:38;10.40;99.90
5689;DHT22;2869;50.432;8.680;2023-03-01T11:53:28;10.50;99.90
5689;DHT22;2869;50.432;8.680;2023-03-01T11:56:05;10.40;99.90
5689;DHT22;2869;50.432;8.680;2023-03-01T11:58:46;10.60;99.90
5689;DHT22;2869;50.432;8.680;2023-03-01T12:01:29;10.70;99.90
5689;DHT22;2869;50.432;8.680;2023-03-01T12:04:29;10.40;99.90
5689;DHT22;2869;50.432;8.680;2023-03-01T12:07:01;10.80;99.90
5689;DHT22;2869;50.432;8.680;2023-03-01T12:09:44;11.00;99.90
5689;DHT22;2869;50.432;8.680;2023-03-01T12:12:35;10.60;99.90
5689;DHT22;2869;50.432;8.680;2023-03-01T12:15:26;10.50;99.90
5689;DHT22;2869;50.432;8.680;2023-03-01T12:18:15;10.50;99.90
5689;DHT22;2869;50.432;8.680;2023-03-01T12:20:51;10.60;99.90
5689;DHT22;2869;50.432;8.680;2023-03-01T12:23:38;10.60;99.90
5689;DHT22;2869;50.432;8.680;2023-03-01T12:26:15;10.60;99.90
5689;DHT22;2869;50.432;8.680;2023-03-01T12:28:52;10.40;99.90
5689;DHT22;2869;50.432;8.680;2023-03-01T12:31:41;10.30;99.90
5689;DHT22;2869;50.432;8.680;2023-03-01T12:34:25;10.10;99.90
5689;DHT22;2869;50.432;8.680;2023-03-01T12:37:09;10.00;99.90
5689;DHT22;2869;50.432;8.680;2023-03-01T12:39:48;10.20;99.90
5689;DHT22;2869;50.432;8.680;2023-03-01T12:42:26;10.30;99.90
5689;DHT22;2869;50.432;8.680;2023-03-01T12:45:06;10.60;99.90
5689;DHT22;2869;50.432;8.680;2023-03-01T12:47:55;10.60;99.90
5689;DHT22;2869;50.432;8.680;2023-03-01T12:50:28;10.90;99.90
5689;DHT22;2869;50.432;8.680;2023-03-01T12:52:57;11.00;99.90
5689;DHT22;2869;50.432;8.680;2023-03-01T12:55:29;10.80;99.90
5689;DHT22;2869;50.432;8.680;2023-03-01T12:58:03;10.80;99.90
5689;DHT22;2869;50.432;8.680;2023-03-01T13:00:36;10.60;99.90
5689;DHT22;2869;50.432;8.680;2023-03-01T13:03:13;10.70;99.90
5689;DHT22;2869;50.432;8.680;2023-03-01T13:05:52;10.80;99.90
5689;DHT22;2869;50.432;8.680;2023-03-01T13:08:29;10.80;99.90
5689;DHT22;2869;50.432;8.680;2023-03-01T13:11:02;10.70;99.90
5689;DHT22;2869;50.432;8.680;2023-03-01T13:13:30;10.30;99.90
5689;DHT22;2869;50.432;8.680;2023-03-01T13:16:22;10.30;99.90
5689;DHT22;2869;50.432;8.680;2023-03-01T13:19:11;10.40;99.80
5689;DHT22;2869;50.432;8.680;2023-03-01T13:21:40;10.60;99.90
5689;DHT22;2869;50.432;8.680;2023-03-01T13:24:25;10.70;99.80
5689;DHT22;2869;50.432;8.680;2023-03-01T13:27:10;10.90;99.10
5689;DHT22;2869;50.432;8.680;2023-03-01T13:29:44;10.40;99.90
5689;DHT22;2869;50.432;8.680;2023-03-01T13:32:22;10.30;99.90
5689;DHT22;2869;50.432;8.680;2023-03-01T13:34:54;10.30;99.00
5689;DHT22;2869;50.432;8.680;2023-03-01T13:37:41;10.40;99.10
5689;DHT22;2869;50.432;8.680;2023-03-01T13:43:30;10.60;99.90
5689;DHT22;2869;50.432;8.680;2023-03-01T13:45:58;10.80;99.90
5689;DHT22;2869;50.432;8.680;2023-03-01T13:48:29;10.90;98.70
5689;DHT22;2869;50.432;8.680;2023-03-01T13:50:59;11.10;99.50
5689;DHT22;2869;50.432;8.680;2023-03-01T13:53:30;11.10;97.80
5689;DHT22;2869;50.432;8.680;2023-03-01T13:56:01;11.30;97.50
5689;DHT22;2869;50.432;8.680;2023-03-01T13:58:29;11.00;97.60
5689;DHT22;2869;50.432;8.680;2023-03-01T14:00:59;10.70;97.90
5689;DHT22;2869;50.432;8.680;2023-03-01T14:03:28;10.80;98.40
5689;DHT22;2869;50.432;8.680;2023-03-01T14:06:03;10.60;99.80
5689;DHT22;2869;50.432;8.680;2023-03-01T14:08:33;10.70;99.90
5689;DHT22;2869;50.432;8.680;2023-03-01T14:14:19;10.80;99.90
5689;DHT22;2869;50.432;8.680;2023-03-01T14:16:55;10.60;98.60
5689;DHT22;2869;50.432;8.680;2023-03-01T14:19:27;10.70;98.90
5689;DHT22;2869;50.432;8.680;2023-03-01T14:22:04;10.70;98.90
5689;DHT22;2869;50.432;8.680;2023-03-01T14:24:34;10.40;99.90
5689;DHT22;2869;50.432;8.680;2023-03-01T14:27:01;10.40;99.90
5689;DHT22;2869;50.432;8.680;2023-03-01T14:29:34;10.20;99.90
5689;DHT22;2869;50.432;8.680;2023-03-01T14:32:17;10.00;99.90
5689;DHT22;2869;50.432;8.680;2023-03-01T14:34:48;9.90;99.90
5689;DHT22;2869;50.432;8.680;2023-03-01T14:37:21;9.70;99.90
5689;DHT22;2869;50.432;8.680;2023-03-01T14:39:48;9.60;99.90
5689;DHT22;2869;50.432;8.680;2023-03-01T14:42:15;9.40;99.90
5689;DHT22;2869;50.432;8.680;2023-03-01T14:44:44;9.40;99.90
5689;DHT22;2869;50.432;8.680;2023-03-01T14:47:12;9.10;99.90
5689;DHT22;2869;50.432;8.680;2023-03-01T14:49:40;9.00;99.90
5689;DHT22;2869;50.432;8.680;2023-03-01T14:52:18;8.90;99.90
5689;DHT22;2869;50.432;8.680;2023-03-01T14:54:48;8.80;99.90
5689;DHT22;2869;50.432;8.680;2023-03-01T14:57:17;8.90;99.90
5689;DHT22;2869;50.432;8.680;2023-03-01T14:59:44;8.80;99.90
5689;DHT22;2869;50.432;8.680;2023-03-01T15:02:14;8.90;99.90
5689;DHT22;2869;50.432;8.680;2023-03-01T15:04:43;8.70;99.90
5689;DHT22;2869;50.432;8.680;2023-03-01T15:07:13;8.70;99.90
5689;DHT22;2869;50.432;8.680;2023-03-01T15:09:41;8.90;99.90
5689;DHT22;2869;50.432;8.680;2023-03-01T15:12:37;9.20;99.90
5689;DHT22;2869;50.432;8.680;2023-03-01T15:15:34;9.30;99.90
5689;DHT22;2869;50.432;8.680;2023-03-01T15:18:04;9.00;99.90
5689;DHT22;2869;50.432;8.680;2023-03-01T15:20:33;8.80;99.90
5689;DHT22;2869;50.432;8.680;2023-03-01T15:23:03;8.70;99.90
5689;DHT22;2869;50.432;8.680;2023-03-01T15:25:31;8.70;99.90
5689;DHT22;2869;50.432;8.680;2023-03-01T15:28:00;8.70;99.90
5689;DHT22;2869;50.432;8.680;2023-03-01T15:30:31;8.60;99.90
5689;DHT22;2869;50.432;8.680;2023-03-01T15:33:20;8.60;99.90
5689;DHT22;2869;50.432;8.680;2023-03-01T15:35:48;8.70;99.90
5689;DHT22;2869;50.432;8.680;2023-03-01T15:38:29;8.60;99.90
5689;DHT22;2869;50.432;8.680;2023-03-01T15:40:57;8.50;99.90
5689;DHT22;2869;50.432;8.680;2023-03-01T15:43:42;8.40;99.90
5689;DHT22;2869;50.432;8.680;2023-03-01T15:46:17;8.10;99.90
5689;DHT22;2869;50.432;8.680;2023-03-01T15:48:46;8.00;99.90
5689;DHT22;2869;50.432;8.680;2023-03-01T15:51:15;7.90;99.90
5689;DHT22;2869;50.432;8.680;2023-03-01T15:53:47;7.90;99.90
5689;DHT22;2869;50.432;8.680;2023-03-01T15:56:15;7.70;99.90
5689;DHT22;2869;50.432;8.680;2023-03-01T15:58:42;7.60;99.90
5689;DHT22;2869;50.432;8.680;2023-03-01T16:01:11;7.50;99.90
5689;DHT22;2869;50.432;8.680;2023-03-01T16:03:38;7.40;99.90
5689;DHT22;2869;50.432;8.680;2023-03-01T16:06:05;7.30;99.90
5689;DHT22;2869;50.432;8.680;2023-03-01T16:08:32;7.40;99.90
5689;DHT22;2869;50.432;8.680;2023-03-01T16:11:00;7.40;99.90
5689;DHT22;2869;50.432;8.680;2023-03-01T16:13:30;7.40;99.90
5689;DHT22;2869;50.432;8.680;2023-03-01T16:15:57;7.30;99.90
5689;DHT22;2869;50.432;8.680;2023-03-01T16:18:23;7.40;99.90
5689;DHT22;2869;50.432;8.680;2023-03-01T16:20:50;7.40;99.90
5689;DHT22;2869;50.432;8.680;2023-03-01T16:23:18;7.30;99.90
5689;DHT22;2869;50.432;8.680;2023-03-01T16:25:44;7.20;99.90
5689;DHT22;2869;50.432;8.680;2023-03-01T16:28:12;7.00;99.90
5689;DHT22;2869;50.432;8.680;2023-03-01T16:30:39;6.80;99.90
5689;DHT22;2869;50.432;8.680;2023-03-01T16:33:06;6.70;99.90
5689;DHT22;2869;50.432;8.680;2023-03-01T16:35:39;6.70;99.90
5689;DHT22;2869;50.432;8.680;2023-03-01T16:38:05;6.60;99.90
5689;DHT22;2869;50.432;8.680;2023-03-01T16:40:32;6.60;99.90